Time;durP1;ratioP1;P1;durP2;ratioP2;P2;SDS_P1;SDS_P2;PMS_P1;PMS_P2;Temp;Humidity;BMP_temperature;BMP_pressure;BME280_temperature;BME280_humidity;BME280_pressure;Samples;Min_cycle;Max_cycle;Signal;HPM_P1;HPM_P2
2021/12/01 00:00:00;;;;;;;28.45;13.38;;;8.90;99.90;;;;;;4937236;29;20054;-76
2021/12/01 00:02:26;;;;;;;31.40;14.07;;;8.90;99.90;;;;;;4954758;29;20067;-78
2021/12/01 00:04:51;;;;;;;30.60;15.27;;;9.00;99.90;;;;;;4954566;29;20141;-76
2021/12/01 00:07:17;;;;;;;28.63;14.70;;;9.00;99.90;;;;;;4954202;29;20051;-77
2021/12/01 00:09:43;;;;;;;32.20;14.68;;;9.10;99.90;;;;;;4954568;29;20043;-77
2021/12/01 00:12:09;;;;;;;29.95;15.05;;;9.10;99.90;;;;;;4954410;29;20047;-77
2021/12/01 00:14:35;;;;;;;32.97;16.60;;;9.10;99.90;;;;;;4954427;29;20402;-76
2021/12/01 00:17:01;;;;;;;30.42;14.30;;;9.10;99.90;;;;;;4953736;29;20042;-76
2021/12/01 00:19:29;;;;;;;29.23;15.75;;;9.10;99.90;;;;;;4954356;29;20487;-76
2021/12/01 00:21:55;;;;;;;31.42;16.65;;;9.20;99.90;;;;;;4954246;29;20471;-77
2021/12/01 00:24:21;;;;;;;37.97;17.35;;;9.20;99.90;;;;;;4954018;29;20490;-77
2021/12/01 00:26:47;;;;;;;36.75;18.73;;;9.30;99.90;;;;;;4954130;29;20039;-76
2021/12/01 00:29:12;;;;;;;37.40;19.67;;;9.20;99.90;;;;;;4954122;29;20059;-78
2021/12/01 00:31:38;;;;;;;30.23;18.05;;;9.30;99.90;;;;;;4953957;29;20043;-77
2021/12/01 00:34:04;;;;;;;34.28;17.40;;;9.30;99.90;;;;;;4954232;29;20136;-77
2021/12/01 00:36:29;;;;;;;31.25;15.45;;;9.80;99.90;;;;;;4954058;29;20414;-76
2021/12/01 00:38:55;;;;;;;35.38;18.77;;;9.60;99.90;;;;;;4953851;29;20039;-77
2021/12/01 00:41:23;;;;;;;36.95;19.13;;;9.30;99.90;;;;;;4953638;29;20043;-77
2021/12/01 00:43:49;;;;;;;42.72;18.05;;;9.30;99.90;;;;;;4953279;28;20048;-77
2021/12/01 00:46:36;;;;;;;36.78;17.10;;;9.40;99.90;;;;;;4953829;29;20483;-77
2021/12/01 00:49:02;;;;;;;37.38;17.17;;;9.30;99.90;;;;;;4953636;29;20075;-77
2021/12/01 00:51:28;;;;;;;33.78;14.88;;;9.30;99.90;;;;;;4953874;29;20562;-77
2021/12/01 00:53:54;;;;;;;35.38;16.52;;;9.40;99.90;;;;;;4953537;29;20123;-78
2021/12/01 00:56:19;;;;;;;29.08;15.35;;;9.40;99.90;;;;;;4953583;29;20059;-77
2021/12/01 00:58:45;;;;;;;34.80;16.80;;;9.30;99.90;;;;;;4954083;29;20451;-77
2021/12/01 01:01:11;;;;;;;34.70;16.25;;;9.40;99.90;;;;;;4936801;29;20094;-77
2021/12/01 01:03:36;;;;;;;29.20;16.48;;;10.00;99.90;;;;;;4953901;29;20043;-77
2021/12/01 01:06:05;;;;;;;28.40;15.00;;;9.30;99.90;;;;;;4953407;29;20410;-77
2021/12/01 01:08:31;;;;;;;27.50;15.20;;;9.40;99.90;;;;;;4953464;29;20044;-77
2021/12/01 01:11:09;;;;;;;30.60;15.05;;;9.40;99.90;;;;;;4953127;29;20094;-77
2021/12/01 01:16:25;;;;;;;26.55;13.90;;;9.40;99.90;;;;;;4953677;29;20055;-77
2021/12/01 01:18:54;;;;;;;28.85;13.00;;;9.40;99.90;;;;;;4953524;29;20066;-76
2021/12/01 01:21:21;;;;;;;32.10;13.30;;;9.50;99.90;;;;;;4953504;29;20525;-78
2021/12/01 01:23:47;;;;;;;26.92;12.45;;;9.40;99.90;;;;;;4935870;29;20471;-78
2021/12/01 01:26:16;;;;;;;27.25;13.05;;;9.40;99.90;;;;;;4953382;29;20054;-77
2021/12/01 01:28:43;;;;;;;25.45;10.30;;;9.50;99.90;;;;;;4936606;29;20047;-78
2021/12/01 01:31:10;;;;;;;27.10;11.05;;;9.50;99.90;;;;;;4936117;29;20051;-76
2021/12/01 01:33:35;;;;;;;19.70;10.32;;;9.60;99.90;;;;;;4953495;29;20062;-79
2021/12/01 01:36:01;;;;;;;24.02;10.15;;;9.50;99.90;;;;;;4953306;29;20044;-78
2021/12/01 01:38:31;;;;;;;23.10;8.63;;;9.50;99.90;;;;;;4953557;29;20047;-78
2021/12/01 01:41:04;;;;;;;22.00;9.50;;;9.50;99.90;;;;;;4935612;29;20130;-78
2021/12/01 01:43:30;;;;;;;22.83;8.88;;;9.60;99.90;;;;;;4953498;29;20765;-76
2021/12/01 01:45:57;;;;;;;16.38;6.60;;;9.50;99.90;;;;;;4953403;29;20043;-78
2021/12/01 01:48:33;;;;;;;16.67;7.03;;;10.00;99.90;;;;;;4953465;29;20039;-76
2021/12/01 01:51:02;;;;;;;17.73;6.60;;;10.20;99.90;;;;;;4953505;29;20039;-76
2021/12/01 01:53:29;;;;;;;17.70;6.10;;;9.60;99.90;;;;;;4953387;29;20050;-78
2021/12/01 01:55:58;;;;;;;15.48;5.18;;;9.60;99.90;;;;;;4953494;28;20051;-78
2021/12/01 01:58:26;;;;;;;8.95;3.65;;;9.90;99.90;;;;;;4956918;29;20046;-79
2021/12/01 02:01:06;;;;;;;14.52;4.75;;;9.70;99.90;;;;;;4956953;29;20051;-76
2021/12/01 02:03:37;;;;;;;21.33;4.72;;;10.00;99.90;;;;;;4956665;29;20043;-76
2021/12/01 02:06:05;;;;;;;17.15;4.35;;;9.60;99.90;;;;;;4956622;29;20046;-76
2021/12/01 02:08:33;;;;;;;10.55;3.75;;;10.10;99.90;;;;;;4956868;29;20098;-76
2021/12/01 02:11:01;;;;;;;14.02;3.20;;;9.60;99.90;;;;;;4956241;29;20534;-77
2021/12/01 02:13:28;;;;;;;11.25;2.90;;;9.80;99.90;;;;;;4956654;29;20130;-78
2021/12/01 02:15:55;;;;;;;10.30;2.65;;;10.20;99.90;;;;;;4956505;29;20439;-78
2021/12/01 02:18:21;;;;;;;8.68;2.25;;;9.80;99.90;;;;;;4956678;29;20039;-74
2021/12/01 02:21:05;;;;;;;8.77;2.22;;;9.60;99.90;;;;;;4956615;29;20043;-77
2021/12/01 02:23:33;;;;;;;7.57;1.67;;;9.80;99.90;;;;;;4956558;29;20047;-79
2021/12/01 02:25:59;;;;;;;7.22;1.90;;;9.50;99.90;;;;;;4955791;29;20495;-76
2021/12/01 02:28:25;;;;;;;6.93;1.60;;;9.60;99.90;;;;;;4956145;29;20051;-76
2021/12/01 02:30:51;;;;;;;6.55;1.50;;;9.50;99.90;;;;;;4956274;29;20188;-77
2021/12/01 02:33:17;;;;;;;5.53;1.63;;;9.90;99.90;;;;;;4956567;29;20047;-78
2021/12/01 02:35:43;;;;;;;4.72;1.50;;;9.60;99.90;;;;;;4956389;29;20039;-77
2021/12/01 02:38:09;;;;;;;3.63;1.45;;;9.60;99.90;;;;;;4956293;29;20543;-77
2021/12/01 02:40:35;;;;;;;6.28;1.25;;;9.60;99.90;;;;;;4955996;29;20043;-78
2021/12/01 02:43:00;;;;;;;4.15;1.52;;;9.70;99.90;;;;;;4955865;29;20403;-76
2021/12/01 02:45:26;;;;;;;7.45;1.80;;;9.60;99.90;;;;;;4955966;29;20046;-77
2021/12/01 02:47:52;;;;;;;5.70;1.40;;;9.70;99.90;;;;;;4955933;29;20078;-77
2021/12/01 02:50:17;;;;;;;7.88;1.70;;;9.60;99.90;;;;;;4939043;29;20070;-76
2021/12/01 02:52:43;;;;;;;8.25;2.15;;;9.70;99.90;;;;;;4939060;29;20536;-77
2021/12/01 02:55:15;;;;;;;3.42;1.15;;;9.90;99.90;;;;;;4938493;29;20054;-78
2021/12/01 02:57:47;;;;;;;8.73;1.65;;;9.70;99.90;;;;;;4955787;29;20083;-78
2021/12/01 03:00:14;;;;;;;8.88;1.50;;;9.80;99.90;;;;;;4955455;29;20122;-78
2021/12/01 03:02:41;;;;;;;10.93;1.42;;;9.80;99.90;;;;;;4938342;29;20805;-77
2021/12/01 03:05:08;;;;;;;6.90;1.70;;;9.80;99.90;;;;;;4955909;29;20090;-76
2021/12/01 03:07:34;;;;;;;8.98;1.27;;;10.00;99.90;;;;;;4955219;28;20079;-76
2021/12/01 03:10:01;;;;;;;12.00;1.83;;;9.80;99.90;;;;;;4938817;29;20552;-76
2021/12/01 03:12:32;;;;;;;12.05;1.88;;;9.80;99.90;;;;;;4955434;29;20407;-77
2021/12/01 03:14:58;;;;;;;11.13;1.75;;;9.80;99.90;;;;;;4955658;29;20054;-75
2021/12/01 03:17:29;;;;;;;5.63;1.75;;;9.80;99.90;;;;;;4955308;29;20086;-76
2021/12/01 03:19:55;;;;;;;7.88;1.50;;;9.80;99.90;;;;;;4955683;29;20043;-78
2021/12/01 03:22:20;;;;;;;11.48;1.58;;;9.80;99.90;;;;;;4922419;29;20055;-77
2021/12/01 03:24:46;;;;;;;7.00;1.15;;;9.80;99.90;;;;;;4955428;29;20047;-77
2021/12/01 03:27:12;;;;;;;11.60;1.63;;;9.80;99.90;;;;;;4955315;29;20090;-76
2021/12/01 03:29:38;;;;;;;7.00;1.17;;;9.80;99.90;;;;;;4954567;29;20055;-77
2021/12/01 03:32:04;;;;;;;14.98;2.15;;;10.30;99.90;;;;;;4954996;29;20059;-76
2021/12/01 03:34:29;;;;;;;14.10;2.40;;;9.80;99.90;;;;;;4955211;29;20107;-75
2021/12/01 03:36:56;;;;;;;14.40;2.10;;;10.00;99.90;;;;;;4955211;29;20447;-76
2021/12/01 03:39:23;;;;;;;9.32;1.70;;;9.70;99.90;;;;;;4955170;29;20487;-76
2021/12/01 03:41:49;;;;;;;13.02;1.92;;;10.10;99.90;;;;;;4954984;29;20057;-76
2021/12/01 03:44:14;;;;;;;11.35;2.05;;;9.70;99.90;;;;;;4954699;29;20039;-76
2021/12/01 03:46:40;;;;;;;13.70;1.80;;;9.70;99.90;;;;;;4955097;29;20508;-77
2021/12/01 03:49:06;;;;;;;13.32;2.03;;;9.90;99.90;;;;;;4954864;29;20111;-77
2021/12/01 03:51:32;;;;;;;16.38;2.28;;;9.70;99.90;;;;;;4937683;29;20051;-76
2021/12/01 03:53:58;;;;;;;18.55;2.65;;;9.70;99.90;;;;;;4954974;29;20123;-78
2021/12/01 03:56:24;;;;;;;22.50;2.28;;;10.20;99.90;;;;;;4937751;29;20077;-77
2021/12/01 03:58:49;;;;;;;18.08;2.70;;;9.70;99.90;;;;;;4954204;29;20039;-76
2021/12/01 04:01:16;;;;;;;15.93;2.42;;;9.70;99.90;;;;;;4954713;29;20051;-78
2021/12/01 04:03:41;;;;;;;14.57;2.72;;;9.60;99.90;;;;;;4921687;29;20129;-78
2021/12/01 04:06:07;;;;;;;16.75;2.53;;;10.10;99.90;;;;;;4921826;29;20134;-78
2021/12/01 04:08:34;;;;;;;16.00;2.13;;;9.60;99.90;;;;;;4954636;29;20438;-78
2021/12/01 04:11:00;;;;;;;15.02;2.00;;;9.80;99.90;;;;;;4954580;29;20411;-77
2021/12/01 04:13:26;;;;;;;12.40;2.20;;;9.60;99.90;;;;;;4954058;29;20039;-76
2021/12/01 04:15:51;;;;;;;10.48;2.00;;;9.60;99.90;;;;;;4936612;29;20055;-78
2021/12/01 04:18:17;;;;;;;18.67;2.72;;;9.80;99.90;;;;;;4936699;29;20051;-78
2021/12/01 04:20:43;;;;;;;12.25;2.22;;;9.50;99.90;;;;;;4954294;29;20155;-78
2021/12/01 04:23:08;;;;;;;9.68;1.92;;;9.50;99.90;;;;;;4954491;29;20050;-77
2021/12/01 04:25:35;;;;;;;10.30;1.90;;;9.50;99.90;;;;;;4954178;29;20035;-76
2021/12/01 04:28:01;;;;;;;14.15;1.98;;;9.50;99.90;;;;;;4954178;29;20051;-77
2021/12/01 04:30:27;;;;;;;16.38;2.25;;;9.50;99.90;;;;;;4953403;29;20059;-77
2021/12/01 04:32:54;;;;;;;6.68;1.27;;;9.50;99.90;;;;;;4954152;29;20537;-77
2021/12/01 04:35:22;;;;;;;7.88;1.90;;;9.90;99.90;;;;;;4954240;29;20043;-79
2021/12/01 04:37:49;;;;;;;7.32;1.40;;;9.60;99.90;;;;;;4936883;29;20043;-76
2021/12/01 04:40:16;;;;;;;10.48;2.10;;;9.60;99.90;;;;;;4936972;29;20577;-77
2021/12/01 04:42:43;;;;;;;7.40;1.52;;;10.10;99.90;;;;;;4953846;29;20486;-77
2021/12/01 04:45:14;;;;;;;8.15;1.50;;;9.50;99.90;;;;;;4953859;29;20062;-77
2021/12/01 04:47:45;;;;;;;7.65;1.75;;;9.50;99.90;;;;;;4953789;29;20102;-80
2021/12/01 04:50:12;;;;;;;6.60;1.70;;;9.50;99.90;;;;;;4954185;29;20054;-78
2021/12/01 04:52:39;;;;;;;5.90;2.00;;;9.70;99.90;;;;;;4953947;29;20110;-80
2021/12/01 04:55:06;;;;;;;2.88;2.00;;;9.90;99.90;;;;;;4936714;29;20457;-80
2021/12/01 04:57:32;;;;;;;5.13;1.55;;;9.50;99.90;;;;;;4953732;29;20047;-77
2021/12/01 04:59:57;;;;;;;4.60;2.45;;;9.60;99.90;;;;;;4953346;29;20410;-80
2021/12/01 05:02:23;;;;;;;6.18;2.53;;;9.50;99.90;;;;;;4953670;29;20047;-75
2021/12/01 05:04:49;;;;;;;2.88;1.35;;;9.50;99.90;;;;;;4953822;29;20050;-78
2021/12/01 05:07:15;;;;;;;2.72;1.55;;;9.50;99.90;;;;;;4953917;29;20126;-78
2021/12/01 05:09:41;;;;;;;3.53;1.25;;;9.50;99.90;;;;;;4953637;29;20054;-78
2021/12/01 05:12:08;;;;;;;3.90;1.10;;;9.40;99.90;;;;;;4953751;29;20047;-77
2021/12/01 05:14:37;;;;;;;1.92;1.00;;;9.40;99.90;;;;;;4953569;29;20383;-78
2021/12/01 05:17:04;;;;;;;1.30;0.80;;;9.40;99.90;;;;;;4953531;29;20380;-78
2021/12/01 05:19:30;;;;;;;2.33;1.05;;;9.40;99.90;;;;;;4953735;29;20055;-79
2021/12/01 05:21:56;;;;;;;2.67;0.90;;;9.50;99.90;;;;;;4953261;29;20074;-77
2021/12/01 05:24:22;;;;;;;1.35;0.80;;;9.90;99.90;;;;;;4953578;29;20086;-77
2021/12/01 05:26:48;;;;;;;1.00;0.63;;;9.40;99.90;;;;;;4953206;29;20086;-78
2021/12/01 05:29:16;;;;;;;1.60;0.70;;;9.40;99.90;;;;;;4953573;29;20490;-77
2021/12/01 05:31:42;;;;;;;1.15;0.73;;;9.30;99.90;;;;;;4956847;28;20066;-77
2021/12/01 05:34:08;;;;;;;2.35;0.90;;;9.80;99.90;;;;;;4957334;29;20250;-78
2021/12/01 05:36:34;;;;;;;1.73;0.50;;;9.30;99.90;;;;;;4957360;29;20054;-77
2021/12/01 05:39:00;;;;;;;3.15;0.80;;;9.40;99.90;;;;;;4957276;29;20354;-77
2021/12/01 05:41:26;;;;;;;1.65;0.82;;;9.80;99.90;;;;;;4957269;29;20082;-76
2021/12/01 05:43:51;;;;;;;2.03;1.05;;;9.70;99.90;;;;;;4957074;29;20470;-76
2021/12/01 05:46:17;;;;;;;3.72;1.02;;;9.20;99.90;;;;;;4957439;29;20047;-77
2021/12/01 05:48:43;;;;;;;5.60;1.30;;;9.80;99.90;;;;;;4956881;29;20047;-79
2021/12/01 05:51:09;;;;;;;2.88;1.50;;;9.20;99.90;;;;;;4956934;29;20099;-78
2021/12/01 05:53:35;;;;;;;3.22;1.40;;;9.60;99.90;;;;;;4957159;29;20452;-77
2021/12/01 05:56:02;;;;;;;3.22;1.65;;;9.20;99.90;;;;;;4956653;29;20134;-76
2021/12/01 05:58:27;;;;;;;4.55;1.70;;;9.60;99.90;;;;;;4956817;29;20094;-78
2021/12/01 06:00:53;;;;;;;4.80;1.70;;;9.20;99.90;;;;;;4957077;29;20043;-77
2021/12/01 06:03:19;;;;;;;3.97;2.10;;;9.20;99.90;;;;;;4956540;29;20050;-79
2021/12/01 06:05:45;;;;;;;3.75;1.92;;;9.20;99.90;;;;;;4956796;29;20039;-78
2021/12/01 06:08:10;;;;;;;4.13;1.88;;;9.30;99.90;;;;;;4956922;29;20482;-77
2021/12/01 06:10:38;;;;;;;3.70;1.95;;;9.60;99.90;;;;;;4956443;29;20051;-77
2021/12/01 06:13:04;;;;;;;2.72;1.27;;;9.10;99.90;;;;;;4956662;29;20043;-77
2021/12/01 06:15:31;;;;;;;5.05;1.60;;;9.60;99.90;;;;;;4956430;29;20094;-78
2021/12/01 06:17:58;;;;;;;4.18;1.98;;;9.10;99.90;;;;;;4956675;29;20107;-78
2021/12/01 06:20:24;;;;;;;2.40;1.30;;;9.10;99.90;;;;;;4956123;29;20058;-78
2021/12/01 06:22:52;;;;;;;2.58;1.58;;;9.50;99.90;;;;;;4956603;29;20079;-78
2021/12/01 06:25:18;;;;;;;4.60;1.50;;;9.00;99.90;;;;;;4923720;29;20090;-79
2021/12/01 06:27:44;;;;;;;2.50;1.15;;;9.00;99.90;;;;;;4956275;29;20055;-76
2021/12/01 06:30:11;;;;;;;3.40;1.73;;;9.20;99.90;;;;;;4938846;29;20114;-77
2021/12/01 06:32:37;;;;;;;2.25;1.15;;;9.00;99.90;;;;;;4938892;29;20113;-78
2021/12/01 06:35:03;;;;;;;1.88;0.88;;;9.20;99.90;;;;;;4956192;29;20422;-78
2021/12/01 06:37:29;;;;;;;1.83;0.80;;;9.00;99.90;;;;;;4956368;29;20097;-78
2021/12/01 06:39:54;;;;;;;1.67;1.10;;;9.10;99.90;;;;;;4956275;29;20073;-78
2021/12/01 06:42:20;;;;;;;1.52;1.10;;;9.60;99.90;;;;;;4955416;28;20050;-78
2021/12/01 06:44:46;;;;;;;2.33;1.17;;;9.60;99.90;;;;;;4956083;29;20055;-78
2021/12/01 06:47:11;;;;;;;2.17;1.30;;;9.20;99.90;;;;;;4956063;29;20046;-78
2021/12/01 06:49:37;;;;;;;2.13;1.27;;;9.30;99.90;;;;;;4956072;29;20047;-79
2021/12/01 06:52:03;;;;;;;2.38;1.40;;;8.90;99.90;;;;;;4955924;29;20517;-78
2021/12/01 06:54:29;;;;;;;2.45;1.60;;;8.90;99.90;;;;;;4956112;29;20414;-77
2021/12/01 06:56:54;;;;;;;2.70;1.50;;;8.90;99.90;;;;;;4955600;29;20051;-77
2021/12/01 06:59:20;;;;;;;2.22;1.40;;;9.50;99.90;;;;;;4955920;29;20054;-78
2021/12/01 07:01:46;;;;;;;2.13;1.45;;;9.40;99.90;;;;;;4955588;29;20483;-78
2021/12/01 07:04:13;;;;;;;2.55;1.63;;;8.50;99.90;;;;;;4938800;29;20043;-80
2021/12/01 07:06:39;;;;;;;2.35;1.40;;;9.40;99.90;;;;;;4955401;29;20051;-79
2021/12/01 07:09:05;;;;;;;3.63;1.70;;;8.90;99.90;;;;;;4955763;29;20046;-80
2021/12/01 07:11:31;;;;;;;4.38;2.17;;;9.40;99.90;;;;;;4955614;29;20043;-79
2021/12/01 07:13:57;;;;;;;3.13;1.58;;;8.80;99.90;;;;;;4955577;29;20047;-79
2021/12/01 07:16:23;;;;;;;4.35;2.13;;;8.90;99.90;;;;;;4955251;29;20047;-79
2021/12/01 07:18:49;;;;;;;3.85;2.88;;;9.60;99.90;;;;;;4955499;29;20047;-78
2021/12/01 07:21:14;;;;;;;4.30;2.20;;;8.90;99.90;;;;;;4955481;29;20561;-78
2021/12/01 07:23:40;;;;;;;6.47;2.92;;;8.80;99.90;;;;;;4955592;29;20043;-78
2021/12/01 07:26:06;;;;;;;6.30;3.25;;;9.40;99.90;;;;;;4955173;29;20090;-79
2021/12/01 07:28:34;;;;;;;3.75;2.60;;;8.90;99.90;;;;;;4955381;29;20131;-78
2021/12/01 07:31:00;;;;;;;4.55;2.78;;;8.90;99.90;;;;;;4954189;28;20067;-79
2021/12/01 07:33:28;;;;;;;5.32;3.15;;;9.50;99.90;;;;;;4922019;29;20043;-77
2021/12/01 07:47:27;;;;;;;8.80;2.75;;;8.90;99.90;;;;;;4954396;28;20129;-81
2021/12/01 07:49:52;;;;;;;7.60;2.40;;;9.00;99.90;;;;;;4937087;29;20043;-78
2021/12/01 07:52:18;;;;;;;7.18;2.63;;;9.10;99.90;;;;;;4954774;29;20047;-80
2021/12/01 07:54:44;;;;;;;5.13;2.38;;;9.00;99.90;;;;;;4937838;29;20376;-80
2021/12/01 07:57:10;;;;;;;6.78;3.40;;;9.60;99.90;;;;;;4961364;28;20062;-80
2021/12/01 07:59:36;;;;;;;5.38;3.33;;;9.10;99.90;;;;;;4954659;29;20041;-77
2021/12/01 08:02:03;;;;;;;7.03;3.17;;;9.00;99.90;;;;;;4954572;29;20043;-78
2021/12/01 08:04:28;;;;;;;4.68;2.90;;;9.60;99.90;;;;;;4954558;29;20059;-80
2021/12/01 08:06:55;;;;;;;6.88;2.72;;;9.50;99.90;;;;;;4954465;29;20090;-80
2021/12/01 08:09:21;;;;;;;7.07;3.13;;;9.10;99.90;;;;;;4954481;29;20051;-78
2021/12/01 08:11:47;;;;;;;7.38;3.53;;;9.10;99.90;;;;;;4954581;29;20043;-79
2021/12/01 08:14:13;;;;;;;6.20;3.05;;;9.10;99.90;;;;;;4954582;29;20047;-79
2021/12/01 08:16:39;;;;;;;4.22;2.60;;;9.10;99.90;;;;;;4954515;29;20126;-78
2021/12/01 08:19:05;;;;;;;7.22;3.05;;;9.10;99.90;;;;;;4954382;29;20058;-78
2021/12/01 08:21:33;;;;;;;6.97;2.70;;;9.50;99.90;;;;;;4954208;29;20047;-80
2021/12/01 08:23:58;;;;;;;10.43;2.85;;;9.10;99.90;;;;;;4954259;29;20043;-79
2021/12/01 08:26:24;;;;;;;8.45;2.90;;;9.20;99.90;;;;;;4953944;29;20059;-81
2021/12/01 08:28:50;;;;;;;4.25;2.03;;;9.10;99.90;;;;;;4954468;29;20051;-78
2021/12/01 08:31:17;;;;;;;5.20;1.70;;;9.10;99.90;;;;;;4954238;29;20066;-78
2021/12/01 08:33:47;;;;;;;5.60;1.33;;;9.30;99.90;;;;;;4954217;29;20078;-76
2021/12/01 08:36:13;;;;;;;4.00;1.27;;;9.20;99.90;;;;;;4953854;29;20042;-78
2021/12/01 08:38:40;;;;;;;5.60;1.45;;;9.10;99.90;;;;;;4953877;29;20047;-77
2021/12/01 08:41:07;;;;;;;5.20;1.38;;;9.70;99.90;;;;;;4954060;29;20454;-77
2021/12/01 08:43:34;;;;;;;8.77;1.30;;;9.50;99.90;;;;;;4936583;29;20059;-77
2021/12/01 08:46:00;;;;;;;9.85;1.70;;;9.00;99.90;;;;;;4953790;29;20047;-78
2021/12/01 08:48:26;;;;;;;11.38;1.58;;;9.00;99.90;;;;;;4953906;29;20506;-78
2021/12/01 08:50:52;;;;;;;9.20;1.20;;;9.50;99.90;;;;;;4953751;29;20081;-78
2021/12/01 08:53:18;;;;;;;6.72;1.27;;;9.00;99.90;;;;;;4954051;29;20070;-79
2021/12/01 08:55:45;;;;;;;6.30;1.27;;;9.30;99.90;;;;;;4953150;29;20039;-76
2021/12/01 08:58:12;;;;;;;4.38;1.08;;;8.90;99.90;;;;;;4951723;29;20085;-76
2021/12/01 09:00:43;;;;;;;5.18;1.08;;;9.20;99.90;;;;;;4954041;29;20436;-78
2021/12/01 09:03:10;;;;;;;2.42;0.75;;;8.90;99.90;;;;;;4953737;29;20106;-78
2021/12/01 09:05:36;;;;;;;11.70;1.38;;;8.90;99.90;;;;;;4953351;28;20047;-78
2021/12/01 09:08:01;;;;;;;7.32;0.90;;;9.00;99.90;;;;;;4953747;29;20046;-79
2021/12/01 09:10:27;;;;;;;5.93;1.00;;;8.90;99.90;;;;;;4953643;29;20106;-79
2021/12/01 09:12:53;;;;;;;8.85;0.98;;;8.80;99.90;;;;;;4953595;29;20036;-79
2021/12/01 09:15:18;;;;;;;3.83;0.95;;;9.00;99.90;;;;;;4953969;29;20047;-78
2021/12/01 09:17:45;;;;;;;7.97;1.13;;;8.80;99.90;;;;;;4953673;29;20051;-78
2021/12/01 09:20:12;;;;;;;6.43;0.98;;;8.80;99.90;;;;;;4953636;29;20698;-81
2021/12/01 09:22:38;;;;;;;6.60;1.02;;;9.00;99.90;;;;;;4953690;29;20402;-79
2021/12/01 09:25:04;;;;;;;5.85;0.80;;;9.20;99.90;;;;;;4953389;29;20047;-78
2021/12/01 09:27:30;;;;;;;9.05;1.02;;;8.70;99.90;;;;;;4953368;29;20086;-79
2021/12/01 09:29:55;;;;;;;7.55;1.02;;;8.60;99.90;;;;;;4953521;29;20052;-81
2021/12/01 09:32:21;;;;;;;14.15;1.65;;;8.60;99.90;;;;;;4953437;29;20138;-79
2021/12/01 09:34:47;;;;;;;11.45;1.17;;;8.60;99.90;;;;;;4936708;29;20059;-78
2021/12/01 09:37:13;;;;;;;5.30;1.13;;;8.60;99.90;;;;;;4953206;29;20512;-78
2021/12/01 09:39:38;;;;;;;11.73;1.08;;;8.60;99.90;;;;;;4953447;29;20048;-79
2021/12/01 09:42:04;;;;;;;5.97;1.02;;;9.00;99.90;;;;;;4953213;29;20134;-78
2021/12/01 09:44:31;;;;;;;17.80;1.17;;;8.60;99.90;;;;;;4936314;29;20055;-81
2021/12/01 09:46:57;;;;;;;12.57;1.85;;;8.80;99.90;;;;;;4953067;29;20126;-80
2021/12/01 09:49:23;;;;;;;9.00;1.00;;;8.50;99.90;;;;;;4953132;29;20039;-78
2021/12/01 09:51:48;;;;;;;8.65;1.08;;;9.00;99.90;;;;;;4952888;29;20490;-79
2021/12/01 09:54:14;;;;;;;10.88;2.00;;;8.70;99.90;;;;;;4953118;29;20040;-76
2021/12/01 09:56:40;;;;;;;20.35;2.38;;;8.50;99.90;;;;;;4953170;29;20047;-79
2021/12/01 09:59:06;;;;;;;6.40;0.93;;;8.50;99.90;;;;;;4953404;29;20046;-79
2021/12/01 10:01:31;;;;;;;8.77;1.13;;;8.50;99.90;;;;;;4953619;29;20387;-81
2021/12/01 10:03:58;;;;;;;13.90;1.73;;;8.60;99.90;;;;;;4953267;29;20105;-78
2021/12/01 10:06:25;;;;;;;10.68;1.63;;;8.60;99.90;;;;;;4953051;29;20066;-78
2021/12/01 10:08:57;;;;;;;17.90;2.63;;;8.60;99.90;;;;;;4935882;29;20055;-77
2021/12/01 10:11:30;;;;;;;14.40;1.70;;;8.60;99.90;;;;;;4953090;29;20376;-80
2021/12/01 10:14:02;;;;;;;16.17;2.08;;;8.70;99.90;;;;;;4953227;29;20047;-78
2021/12/01 10:16:31;;;;;;;10.90;1.83;;;8.70;99.90;;;;;;4936138;29;20506;-77
2021/12/01 10:18:59;;;;;;;10.13;1.45;;;8.70;99.90;;;;;;4956462;29;20043;-77
2021/12/01 10:21:34;;;;;;;14.90;1.83;;;9.00;99.90;;;;;;4956474;29;20054;-77
2021/12/01 10:24:09;;;;;;;20.08;2.30;;;8.70;99.90;;;;;;4956397;29;20066;-77
2021/12/01 10:26:42;;;;;;;8.82;1.48;;;8.60;99.90;;;;;;4956362;29;20501;-78
2021/12/01 10:29:16;;;;;;;12.30;2.17;;;8.70;99.90;;;;;;4956451;29;20043;-78
2021/12/01 10:31:43;;;;;;;11.10;1.45;;;8.80;99.90;;;;;;4955773;29;20114;-76
2021/12/01 10:34:20;;;;;;;17.17;2.15;;;8.70;99.90;;;;;;4939067;29;20497;-78
2021/12/01 10:36:50;;;;;;;16.58;1.60;;;8.70;99.90;;;;;;4956212;29;20047;-78
2021/12/01 10:39:16;;;;;;;14.00;1.33;;;9.20;99.90;;;;;;4939446;29;20047;-78
2021/12/01 10:41:43;;;;;;;15.40;1.70;;;9.00;99.90;;;;;;4956189;29;20047;-78
2021/12/01 10:44:12;;;;;;;11.27;1.35;;;8.90;99.90;;;;;;4955821;29;20126;-78
2021/12/01 10:46:48;;;;;;;16.63;2.15;;;8.70;99.90;;;;;;4955899;29;20086;-77
2021/12/01 10:49:15;;;;;;;12.27;1.65;;;9.00;99.90;;;;;;4956232;29;20402;-78
2021/12/01 10:51:43;;;;;;;6.65;1.15;;;9.00;99.90;;;;;;4956175;29;20055;-79
2021/12/01 10:54:19;;;;;;;13.52;1.92;;;8.50;99.90;;;;;;4955921;29;20491;-80
2021/12/01 10:56:46;;;;;;;5.45;0.88;;;8.50;99.90;;;;;;4955707;29;20403;-77
2021/12/01 10:59:13;;;;;;;5.18;1.00;;;8.50;99.90;;;;;;4955018;29;20039;-78
2021/12/01 11:01:39;;;;;;;11.95;1.80;;;8.50;99.90;;;;;;4955452;29;20051;-79
2021/12/01 11:04:06;;;;;;;9.60;1.50;;;8.50;99.90;;;;;;4964108;28;20109;-77
2021/12/01 11:06:41;;;;;;;17.55;1.52;;;8.90;99.90;;;;;;4956682;28;20097;-78
2021/12/01 11:09:07;;;;;;;;;;;8.50;99.90;;;;;;4950490;29;20489;-75
2021/12/01 11:11:38;;;;;;;12.32;1.77;;;8.90;99.90;;;;;;4956047;29;19926;-78
2021/12/01 11:14:10;;;;;;;13.38;1.30;;;8.70;99.90;;;;;;4953046;29;20047;-77
2021/12/01 11:16:37;;;;;;;16.80;2.08;;;8.60;99.90;;;;;;4947544;29;20055;-75
2021/12/01 11:19:03;;;;;;;7.47;1.30;;;8.60;99.90;;;;;;4954479;29;20103;-77
2021/12/01 11:21:28;;;;;;;12.55;1.98;;;8.50;99.90;;;;;;4937828;29;20051;-77
2021/12/01 11:24:00;;;;;;;12.48;2.05;;;8.50;99.90;;;;;;4952832;29;20047;-77
2021/12/01 11:26:28;;;;;;;21.67;2.10;;;8.60;99.90;;;;;;4939068;28;20051;-76
2021/12/01 11:28:57;;;;;;;21.83;2.63;;;8.60;99.90;;;;;;4935049;29;20051;-77
2021/12/01 11:31:27;;;;;;;31.27;2.53;;;8.60;99.90;;;;;;4942349;29;20414;-79
2021/12/01 11:33:58;;;;;;;15.90;2.50;;;8.80;99.90;;;;;;4954861;29;20055;-77
2021/12/01 11:36:48;;;;;;;16.15;2.70;;;8.60;99.90;;;;;;4954488;29;20118;-78
2021/12/01 11:39:18;;;;;;;17.73;2.78;;;8.60;99.90;;;;;;4935405;29;20414;-78
2021/12/01 11:41:48;;;;;;;23.75;3.05;;;8.60;99.90;;;;;;4936014;29;20051;-77
2021/12/01 11:44:17;;;;;;;20.10;3.50;;;8.60;99.90;;;;;;4936415;29;20107;-77
2021/12/01 11:46:43;;;;;;;13.48;2.47;;;8.50;99.90;;;;;;4936083;29;20554;-79
2021/12/01 11:49:12;;;;;;;14.60;2.63;;;8.50;99.90;;;;;;4955054;29;20126;-78
2021/12/01 11:51:58;;;;;;;30.95;3.97;;;8.40;99.90;;;;;;4954773;29;20083;-78
2021/12/01 11:54:25;;;;;;;13.40;2.53;;;8.80;99.90;;;;;;4954533;29;20047;-81
2021/12/01 11:57:00;;;;;;;20.35;2.30;;;8.30;99.90;;;;;;4954796;29;20055;-77
2021/12/01 11:59:36;;;;;;;17.48;2.83;;;8.20;99.90;;;;;;4954471;28;20051;-78
2021/12/01 12:02:22;;;;;;;16.38;2.95;;;8.10;99.90;;;;;;4954103;28;20126;-80
2021/12/01 12:04:57;;;;;;;21.10;2.90;;;8.10;99.90;;;;;;4918341;29;20047;-81
2021/12/01 12:07:26;;;;;;;23.23;2.47;;;8.00;99.90;;;;;;4934936;29;20059;-77
2021/12/01 12:10:13;;;;;;;24.00;2.97;;;8.00;99.90;;;;;;4918129;29;20075;-78
2021/12/01 12:13:00;;;;;;;18.13;2.30;;;8.00;99.90;;;;;;4935174;29;20130;-74
2021/12/01 12:15:54;;;;;;;20.75;2.65;;;8.10;99.90;;;;;;4944456;29;20444;-77
2021/12/01 12:18:35;;;;;;;19.33;2.90;;;8.10;99.90;;;;;;4845546;29;20144;-77
2021/12/01 12:21:15;;;;;;;15.73;1.67;;;8.00;99.90;;;;;;4857922;29;20053;-78
2021/12/01 12:23:44;;;;;;;11.80;1.90;;;8.20;99.90;;;;;;4842154;29;20064;-77
2021/12/01 12:26:10;;;;;;;18.17;2.33;;;8.00;99.90;;;;;;4857817;29;20469;-76
2021/12/01 12:28:37;;;;;;;17.20;3.03;;;8.00;99.90;;;;;;4855131;29;20056;-76
2021/12/01 12:31:18;;;;;;;11.70;2.47;;;8.30;99.90;;;;;;4859799;29;20072;-75
2021/12/01 12:33:56;;;;;;;16.42;2.17;;;8.10;99.90;;;;;;4876080;29;20064;-75
2021/12/01 12:36:46;;;;;;;14.00;2.28;;;7.90;99.90;;;;;;4876305;29;20421;-76
2021/12/01 12:39:16;;;;;;;14.45;2.38;;;7.90;99.90;;;;;;4860141;29;20132;-78
2021/12/01 12:41:54;;;;;;;11.10;1.77;;;7.80;99.90;;;;;;4860313;29;20458;-78
2021/12/01 12:44:32;;;;;;;15.63;1.77;;;7.80;99.90;;;;;;4860565;29;20056;-76
2021/12/01 12:47:08;;;;;;;14.43;1.55;;;7.70;99.90;;;;;;4875645;29;20056;-79
2021/12/01 12:49:39;;;;;;;6.53;1.40;;;7.70;99.90;;;;;;4875857;29;20131;-76
2021/12/01 12:52:26;;;;;;;10.23;1.63;;;7.70;99.90;;;;;;4859571;29;20496;-78
2021/12/01 12:55:00;;;;;;;14.77;1.98;;;7.70;99.90;;;;;;4907307;29;20063;-80
2021/12/01 12:57:51;;;;;;;13.25;2.10;;;7.70;99.90;;;;;;4935687;29;20714;-78
2021/12/01 13:00:23;;;;;;;16.90;2.22;;;7.70;99.90;;;;;;4916599;29;20059;-78
2021/12/01 13:02:50;;;;;;;9.48;1.88;;;7.70;99.90;;;;;;4953462;29;20047;-77
2021/12/01 13:05:38;;;;;;;25.20;3.25;;;7.80;99.90;;;;;;4935785;29;20126;-77
2021/12/01 13:08:40;;;;;;;5.93;1.55;;;7.70;99.90;;;;;;4953341;29;20054;-79